Test XHTML 1.0 Strict Page for WU-History Testing
Station Historical Data
 
Daily Summary for July 27, 2016 Units:  Both    English   Metric
« Previous Day
Next Day »
Daily Weekly Monthly Yearly Custom
  Current: High: Low: Average:
Temperature: 64.2 °F /  17.9 °C 66.0 °F /  18.9 °C 59.9 °F /  15.5 °C 61.6 °F /  16.4 °C
Dew Point: 64.2 °F /  17.9 °C 66.0 °F /  18.9 °C 59.9 °F /  15.5 °C 61.6 °F /  16.4 °C
Humidity: 100 % 100 % 100 % 100 %
Wind Speed: 2.3 mph /  3.7 km/h 12.0 mph /  19.3 km/h - 1.7 mph /  2.7 km/h
Wind Gust: 2.3 mph /  3.7 km/h 12.0 mph /  19.3 km/h - -
Wind:NW - - SSW
Pressure: 30.00 in /  1015.8 hPa 30.00 in /  1015.8 hPa 29.91 in /  1012.8 hPa -
Precipitation: 0.14 in /  3.56 mm      
Historical Graphs
 
 
Weather-Above Climate History
Untitled
Tabular Data for July 27, 2016
Time Temperature Dew Point Pressure Wind Wind Speed Wind Gust Humidity Rainfall Rate (Hourly) solar Conditions
00:01 60.8 °F /  16 °C 60.8 °F /  16 °C 30.00 in /  1015.8 hPa ESE 3.5 mph /  5.6 km/h 3.5 mph /  5.6 km/h 100 % 0.00 in /  0 mm 0.0 W/m2 OVC
00:06 60.8 °F /  16 °C 60.8 °F /  16 °C 30.00 in /  1015.8 hPa SSE 6.9 mph /  11.1 km/h 6.9 mph /  11.1 km/h 100 % 0.00 in /  0 mm 0.0 W/m2 OVC
00:11 60.8 °F /  16 °C 60.8 °F /  16 °C 30.00 in /  1015.8 hPa SSE 5.9 mph /  9.5 km/h 5.9 mph /  9.5 km/h 100 % 0.01 in /  0.25 mm 0.0 W/m2 RA
00:16 60.8 °F /  16 °C 60.8 °F /  16 °C 30.00 in /  1015.8 hPa ENE 0.3 mph /  0.5 km/h   100 % 0.01 in /  0.25 mm 0.0 W/m2 RA
00:21 60.6 °F /  15.9 °C 60.6 °F /  15.9 °C 30.00 in /  1015.8 hPa SE 3.5 mph /  5.6 km/h 3.5 mph /  5.6 km/h 100 % 0.01 in /  0.25 mm 0.0 W/m2
00:26 60.6 °F /  15.9 °C 60.6 °F /  15.9 °C 30.00 in /  1015.8 hPa SE 3.5 mph /  5.6 km/h 3.5 mph /  5.6 km/h 100 % 0.01 in /  0.25 mm 0.0 W/m2 OVC
00:31 60.6 °F /  15.9 °C 60.6 °F /  15.9 °C 29.99 in /  1015.5 hPa SSE 2.1 mph /  3.4 km/h 2.1 mph /  3.4 km/h 100 % 0.01 in /  0.25 mm 0.0 W/m2 OVC
00:36 60.6 °F /  15.9 °C 60.6 °F /  15.9 °C 29.99 in /  1015.5 hPa South 5.8 mph /  9.3 km/h 5.8 mph /  9.3 km/h 100 % 0.01 in /  0.25 mm 0.0 W/m2 OVC
00:41 60.6 °F /  15.9 °C 60.6 °F /  15.9 °C 29.99 in /  1015.5 hPa South 12.0 mph /  19.3 km/h 12.0 mph /  19.3 km/h 100 % 0.01 in /  0.25 mm 0.0 W/m2 OVC
00:46 60.6 °F /  15.9 °C 60.6 °F /  15.9 °C 29.99 in /  1015.5 hPa Calm     100 % 0.01 in /  0.25 mm 0.0 W/m2 OVC
00:51 60.6 °F /  15.9 °C 60.6 °F /  15.9 °C 29.99 in /  1015.5 hPa SE 0.6 mph /  1 km/h 0.6 mph /  1 km/h 100 % 0.01 in /  0.25 mm 0.0 W/m2 OVC
00:56 60.6 °F /  15.9 °C 60.6 °F /  15.9 °C 29.99 in /  1015.5 hPa SSE 1.0 mph /  1.6 km/h 1.0 mph /  1.6 km/h 100 % 0.01 in /  0.25 mm 0.0 W/m2 OVC
01:01 60.6 °F /  15.9 °C 60.6 °F /  15.9 °C 29.99 in /  1015.5 hPa SSE 2.6 mph /  4.2 km/h 2.6 mph /  4.2 km/h 100 % 0.00 in /  0 mm 0.0 W/m2 RA
01:06 60.4 °F /  15.8 °C 60.4 °F /  15.8 °C 29.99 in /  1015.5 hPa SE 6.9 mph /  11.1 km/h 6.9 mph /  11.1 km/h 100 % 0.00 in /  0 mm 0.0 W/m2 RA
01:11 60.4 °F /  15.8 °C 60.4 °F /  15.8 °C 29.98 in /  1015.1 hPa Calm     100 % 0.01 in /  0.25 mm 0.0 W/m2
01:16 60.4 °F /  15.8 °C 60.4 °F /  15.8 °C 29.97 in /  1014.8 hPa SE 2.5 mph /  4 km/h 2.5 mph /  4 km/h 100 % 0.01 in /  0.25 mm 0.0 W/m2 OVC
01:22 60.3 °F /  15.7 °C 60.3 °F /  15.7 °C 29.97 in /  1014.8 hPa Calm     100 % 0.01 in /  0.25 mm 0.0 W/m2 OVC
01:27 60.3 °F /  15.7 °C 60.3 °F /  15.7 °C 29.97 in /  1014.8 hPa Calm     100 % 0.01 in /  0.25 mm 0.0 W/m2 OVC
01:32 60.3 °F /  15.7 °C 60.3 °F /  15.7 °C 29.97 in /  1014.8 hPa ESE 3.6 mph /  5.8 km/h 3.6 mph /  5.8 km/h 100 % 0.00 in /  0 mm 0.0 W/m2 RA
01:37 60.3 °F /  15.7 °C 60.3 °F /  15.7 °C 29.97 in /  1014.8 hPa WSW 3.0 mph /  4.8 km/h 3.0 mph /  4.8 km/h 100 % 0.00 in /  0 mm 0.0 W/m2 RA
01:42 60.3 °F /  15.7 °C 60.3 °F /  15.7 °C 29.97 in /  1014.8 hPa NW 1.4 mph /  2.3 km/h 1.4 mph /  2.3 km/h 100 % 0.00 in /  0 mm 0.0 W/m2
01:48 60.3 °F /  15.7 °C 60.3 °F /  15.7 °C 29.97 in /  1014.8 hPa ESE 1.5 mph /  2.4 km/h 1.5 mph /  2.4 km/h 100 % 0.00 in /  0 mm 0.0 W/m2 OVC
01:53 60.3 °F /  15.7 °C 60.3 °F /  15.7 °C 29.97 in /  1014.8 hPa SE 0.4 mph /  0.6 km/h   100 % 0.00 in /  0 mm 0.0 W/m2 OVC
01:58 60.3 °F /  15.7 °C 60.3 °F /  15.7 °C 29.96 in /  1014.4 hPa SSW 5.8 mph /  9.3 km/h 5.8 mph /  9.3 km/h 100 % 0.01 in /  0.25 mm 0.0 W/m2 OVC
02:03 60.3 °F /  15.7 °C 60.3 °F /  15.7 °C 29.96 in /  1014.4 hPa East 4.6 mph /  7.4 km/h 4.6 mph /  7.4 km/h 100 % 0.01 in /  0.25 mm 0.0 W/m2 OVC
02:08 60.3 °F /  15.7 °C 60.3 °F /  15.7 °C 29.96 in /  1014.4 hPa West 3.5 mph /  5.6 km/h 3.5 mph /  5.6 km/h 100 % 0.01 in /  0.25 mm 0.0 W/m2 OVC
02:14 60.3 °F /  15.7 °C 60.3 °F /  15.7 °C 29.96 in /  1014.4 hPa WNW 2.3 mph /  3.7 km/h 2.3 mph /  3.7 km/h 100 % 0.01 in /  0.25 mm 0.0 W/m2 OVC
02:19 60.3 °F /  15.7 °C 60.3 °F /  15.7 °C 29.95 in /  1014.1 hPa Calm     100 % 0.01 in /  0.25 mm 0.0 W/m2 OVC
02:24 60.3 °F /  15.7 °C 60.3 °F /  15.7 °C 29.95 in /  1014.1 hPa East 2.5 mph /  4 km/h 2.5 mph /  4 km/h 100 % 0.01 in /  0.25 mm 0.0 W/m2 OVC
02:29 60.3 °F /  15.7 °C 60.3 °F /  15.7 °C 29.95 in /  1014.1 hPa Calm     100 % 0.01 in /  0.25 mm 0.0 W/m2 OVC
02:34 60.3 °F /  15.7 °C 60.3 °F /  15.7 °C 29.95 in /  1014.1 hPa ESE 1.2 mph /  1.9 km/h 1.2 mph /  1.9 km/h 100 % 0.00 in /  0 mm 0.0 W/m2 OVC
02:39 60.3 °F /  15.7 °C 60.3 °F /  15.7 °C 29.95 in /  1014.1 hPa NNE 0.1 mph /  0.2 km/h   100 % 0.00 in /  0 mm 0.0 W/m2 OVC
02:44 60.3 °F /  15.7 °C 60.3 °F /  15.7 °C 29.95 in /  1014.1 hPa SE 1.2 mph /  1.9 km/h   100 % 0.00 in /  0 mm 0.0 W/m2 OVC
02:49 60.3 °F /  15.7 °C 60.3 °F /  15.7 °C 29.95 in /  1014.1 hPa SE 4.6 mph /  7.4 km/h   100 % 0.00 in /  0 mm 0.0 W/m2 OVC
02:54 60.3 °F /  15.7 °C 60.3 °F /  15.7 °C 29.94 in /  1013.8 hPa SSW 3.9 mph /  6.3 km/h 3.9 mph /  6.3 km/h 100 % 0.00 in /  0 mm 0.0 W/m2 OVC
02:59 60.3 °F /  15.7 °C 60.3 °F /  15.7 °C 29.95 in /  1014.1 hPa South 1.2 mph /  1.9 km/h   100 % 0.01 in /  0.25 mm 0.0 W/m2 RA
03:04 60.3 °F /  15.7 °C 60.3 °F /  15.7 °C 29.94 in /  1013.8 hPa NE 1.2 mph /  1.9 km/h   100 % 0.01 in /  0.25 mm 0.0 W/m2 RA
03:09 60.3 °F /  15.7 °C 60.3 °F /  15.7 °C 29.94 in /  1013.8 hPa Calm     100 % 0.01 in /  0.25 mm 0.0 W/m2
03:14 60.3 °F /  15.7 °C 60.3 °F /  15.7 °C 29.94 in /  1013.8 hPa West 3.5 mph /  5.6 km/h 3.5 mph /  5.6 km/h 100 % 0.01 in /  0.25 mm 0.0 W/m2 OVC
03:19 60.3 °F /  15.7 °C 60.3 °F /  15.7 °C 29.93 in /  1013.4 hPa East 0.8 mph /  1.3 km/h 0.8 mph /  1.3 km/h 100 % 0.01 in /  0.25 mm 0.0 W/m2 OVC
03:24 60.3 °F /  15.7 °C 60.3 °F /  15.7 °C 29.93 in /  1013.4 hPa NW 1.2 mph /  1.9 km/h 1.2 mph /  1.9 km/h 100 % 0.02 in /  0.51 mm 0.0 W/m2 RA
03:29 60.3 °F /  15.7 °C 60.3 °F /  15.7 °C 29.93 in /  1013.4 hPa Calm     100 % 0.02 in /  0.51 mm 0.0 W/m2 RA
03:34 60.3 °F /  15.7 °C 60.3 °F /  15.7 °C 29.93 in /  1013.4 hPa Calm     100 % 0.02 in /  0.51 mm 0.0 W/m2 RA
03:39 60.1 °F /  15.6 °C 60.1 °F /  15.6 °C 29.93 in /  1013.4 hPa South 1.2 mph /  1.9 km/h   100 % 0.02 in /  0.51 mm 0.0 W/m2 RA
03:44 60.1 °F /  15.6 °C 60.1 °F /  15.6 °C 29.93 in /  1013.4 hPa Calm     100 % 0.02 in /  0.51 mm 0.0 W/m2
03:49 60.1 °F /  15.6 °C 60.1 °F /  15.6 °C 29.93 in /  1013.4 hPa Calm     100 % 0.03 in /  0.76 mm 0.0 W/m2 RA
03:54 60.1 °F /  15.6 °C 60.1 °F /  15.6 °C 29.93 in /  1013.4 hPa Calm     100 % 0.04 in /  1.02 mm 0.0 W/m2 RA
03:59 60.1 °F /  15.6 °C 60.1 °F /  15.6 °C 29.93 in /  1013.4 hPa NW 1.5 mph /  2.4 km/h 1.5 mph /  2.4 km/h 100 % 0.04 in /  1.02 mm 2.0 W/m2 RA
04:04 60.1 °F /  15.6 °C 60.1 °F /  15.6 °C 29.93 in /  1013.4 hPa East 1.2 mph /  1.9 km/h   100 % 0.04 in /  1.02 mm 0.0 W/m2 RA
04:09 59.9 °F /  15.5 °C 59.9 °F /  15.5 °C 29.92 in /  1013.1 hPa NW 3.6 mph /  5.8 km/h 3.6 mph /  5.8 km/h 100 % 0.05 in /  1.27 mm 0.0 W/m2 RA
04:14 59.9 °F /  15.5 °C 59.9 °F /  15.5 °C 29.92 in /  1013.1 hPa Calm     100 % 0.05 in /  1.27 mm 2.0 W/m2 RA
04:19 59.9 °F /  15.5 °C 59.9 °F /  15.5 °C 29.91 in /  1012.8 hPa West 2.2 mph /  3.5 km/h 2.2 mph /  3.5 km/h 100 % 0.05 in /  1.27 mm 0.0 W/m2
04:24 59.9 °F /  15.5 °C 59.9 °F /  15.5 °C 29.91 in /  1012.8 hPa East 1.8 mph /  2.9 km/h 1.8 mph /  2.9 km/h 100 % 0.04 in /  1.02 mm 0.0 W/m2
04:29 59.9 °F /  15.5 °C 59.9 °F /  15.5 °C 29.91 in /  1012.8 hPa Calm     100 % 0.04 in /  1.02 mm 0.0 W/m2 OVC
04:34 59.9 °F /  15.5 °C 59.9 °F /  15.5 °C 29.91 in /  1012.8 hPa Calm     100 % 0.03 in /  0.76 mm 2.0 W/m2 OVC
04:39 59.9 °F /  15.5 °C 59.9 °F /  15.5 °C 29.91 in /  1012.8 hPa NW 4.4 mph /  7.1 km/h 4.4 mph /  7.1 km/h 100 % 0.03 in /  0.76 mm 0.0 W/m2 OVC
04:44 59.9 °F /  15.5 °C 59.9 °F /  15.5 °C 29.91 in /  1012.8 hPa East 0.1 mph /  0.2 km/h   100 % 0.04 in /  1.02 mm 0.0 W/m2 RA
04:49 59.9 °F /  15.5 °C 59.9 °F /  15.5 °C 29.91 in /  1012.8 hPa SSW 4.3 mph /  6.9 km/h   100 % 0.03 in /  0.76 mm 0.0 W/m2
04:55 59.9 °F /  15.5 °C 59.9 °F /  15.5 °C 29.91 in /  1012.8 hPa WSW 2.3 mph /  3.7 km/h   100 % 0.03 in /  0.76 mm 0.0 W/m2 RA
05:00 59.9 °F /  15.5 °C 59.9 °F /  15.5 °C 29.91 in /  1012.8 hPa ENE 1.2 mph /  1.9 km/h 1.2 mph /  1.9 km/h 100 % 0.03 in /  0.76 mm 0.0 W/m2 RA
05:05 59.9 °F /  15.5 °C 59.9 °F /  15.5 °C 29.91 in /  1012.8 hPa NW 1.9 mph /  3.1 km/h 1.9 mph /  3.1 km/h 100 % 0.02 in /  0.51 mm 0.0 W/m2
05:10 59.9 °F /  15.5 °C 59.9 °F /  15.5 °C 29.91 in /  1012.8 hPa WNW 0.4 mph /  0.6 km/h   100 % 0.02 in /  0.51 mm 0.0 W/m2 RA
05:15 59.9 °F /  15.5 °C 59.9 °F /  15.5 °C 29.91 in /  1012.8 hPa WSW 1.2 mph /  1.9 km/h   100 % 0.02 in /  0.51 mm 0.0 W/m2 RA
05:20 59.9 °F /  15.5 °C 59.9 °F /  15.5 °C 29.91 in /  1012.8 hPa Calm     100 % 0.02 in /  0.51 mm 0.0 W/m2
05:25 59.9 °F /  15.5 °C 59.9 °F /  15.5 °C 29.91 in /  1012.8 hPa Calm     100 % 0.02 in /  0.51 mm 0.0 W/m2
05:30 59.9 °F /  15.5 °C 59.9 °F /  15.5 °C 29.91 in /  1012.8 hPa WNW 3.5 mph /  5.6 km/h 3.5 mph /  5.6 km/h 100 % 0.02 in /  0.51 mm 2.0 W/m2
05:35 59.9 °F /  15.5 °C 59.9 °F /  15.5 °C 29.91 in /  1012.8 hPa Calm     100 % 0.02 in /  0.51 mm 0.0 W/m2 RA
05:40 59.9 °F /  15.5 °C 59.9 °F /  15.5 °C 29.91 in /  1012.8 hPa NNE 3.5 mph /  5.6 km/h 3.5 mph /  5.6 km/h 100 % 0.02 in /  0.51 mm 0.0 W/m2
05:45 59.9 °F /  15.5 °C 59.9 °F /  15.5 °C 29.91 in /  1012.8 hPa NW 3.5 mph /  5.6 km/h 3.5 mph /  5.6 km/h 100 % 0.02 in /  0.51 mm 3.0 W/m2
05:50 59.9 °F /  15.5 °C 59.9 °F /  15.5 °C 29.92 in /  1013.1 hPa WNW 4.6 mph /  7.4 km/h 4.6 mph /  7.4 km/h 100 % 0.02 in /  0.51 mm 0.0 W/m2
05:55 59.9 °F /  15.5 °C 59.9 °F /  15.5 °C 29.91 in /  1012.8 hPa WNW 0.8 mph /  1.3 km/h 0.8 mph /  1.3 km/h 100 % 0.02 in /  0.51 mm 0.0 W/m2 RA
06:00 59.9 °F /  15.5 °C 59.9 °F /  15.5 °C 29.91 in /  1012.8 hPa Calm     100 % 0.02 in /  0.51 mm 13.0 W/m2 RA
06:05 59.9 °F /  15.5 °C 59.9 °F /  15.5 °C 29.92 in /  1013.1 hPa Calm     100 % 0.03 in /  0.76 mm 0.0 W/m2 RA
06:10 59.9 °F /  15.5 °C 59.9 °F /  15.5 °C 29.91 in /  1012.8 hPa West 0.4 mph /  0.6 km/h   100 % 0.03 in /  0.76 mm 10.0 W/m2 RA
06:15 59.9 °F /  15.5 °C 59.9 °F /  15.5 °C 29.91 in /  1012.8 hPa Calm     100 % 0.03 in /  0.76 mm 6.0 W/m2 RA
06:20 59.9 °F /  15.5 °C 59.9 °F /  15.5 °C 29.91 in /  1012.8 hPa WNW 2.8 mph /  4.5 km/h 2.8 mph /  4.5 km/h 100 % 0.04 in /  1.02 mm 56.0 W/m2 RA
06:25 59.9 °F /  15.5 °C 59.9 °F /  15.5 °C 29.91 in /  1012.8 hPa Calm     100 % 0.04 in /  1.02 mm 51.0 W/m2 RA
06:30 59.9 °F /  15.5 °C 59.9 °F /  15.5 °C 29.91 in /  1012.8 hPa West 0.3 mph /  0.5 km/h   100 % 0.04 in /  1.02 mm 2.0 W/m2
06:35 59.9 °F /  15.5 °C 59.9 °F /  15.5 °C 29.91 in /  1012.8 hPa Calm     100 % 0.03 in /  0.76 mm 5.0 W/m2
06:40 59.9 °F /  15.5 °C 59.9 °F /  15.5 °C 29.91 in /  1012.8 hPa South 5.2 mph /  8.4 km/h 5.2 mph /  8.4 km/h 100 % 0.03 in /  0.76 mm 0.0 W/m2
06:45 60.1 °F /  15.6 °C 60.1 °F /  15.6 °C 29.92 in /  1013.1 hPa WSW 1.2 mph /  1.9 km/h   100 % 0.04 in /  1.02 mm 5.0 W/m2 RA
06:50 60.1 °F /  15.6 °C 60.1 °F /  15.6 °C 29.91 in /  1012.8 hPa Calm     100 % 0.05 in /  1.27 mm 61.0 W/m2 RA
06:55 60.3 °F /  15.7 °C 60.3 °F /  15.7 °C 29.92 in /  1013.1 hPa ENE 0.4 mph /  0.6 km/h   100 % 0.05 in /  1.27 mm 14.0 W/m2 RA
07:00 60.4 °F /  15.8 °C 60.4 °F /  15.8 °C 29.91 in /  1012.8 hPa Calm     100 % 0.04 in /  1.02 mm 0.0 W/m2
07:05 60.6 °F /  15.9 °C 60.6 °F /  15.9 °C 29.91 in /  1012.8 hPa South 8.1 mph /  13 km/h 8.1 mph /  13 km/h 100 % 0.03 in /  0.76 mm 81.0 W/m2 OVC
07:10 60.3 °F /  15.7 °C 60.3 °F /  15.7 °C 29.92 in /  1013.1 hPa West 3.9 mph /  6.3 km/h 3.9 mph /  6.3 km/h 100 % 0.02 in /  0.51 mm 53.0 W/m2 OVC
07:15 60.3 °F /  15.7 °C 60.3 °F /  15.7 °C 29.92 in /  1013.1 hPa WSW 2.3 mph /  3.7 km/h 2.3 mph /  3.7 km/h 100 % 0.02 in /  0.51 mm 31.0 W/m2 OVC
07:20 60.4 °F /  15.8 °C 60.4 °F /  15.8 °C 29.92 in /  1013.1 hPa Calm     100 % 0.02 in /  0.51 mm 12.0 W/m2 OVC
07:25 60.6 °F /  15.9 °C 60.6 °F /  15.9 °C 29.93 in /  1013.4 hPa WSW 4.6 mph /  7.4 km/h 4.6 mph /  7.4 km/h 100 % 0.02 in /  0.51 mm 72.0 W/m2 OVC
07:30 60.4 °F /  15.8 °C 60.4 °F /  15.8 °C 29.93 in /  1013.4 hPa NW 6.2 mph /  10 km/h 6.2 mph /  10 km/h 100 % 0.02 in /  0.51 mm 8.0 W/m2 OVC
07:35 60.3 °F /  15.7 °C 60.3 °F /  15.7 °C 29.93 in /  1013.4 hPa West 9.2 mph /  14.8 km/h 9.2 mph /  14.8 km/h 100 % 0.02 in /  0.51 mm 63.0 W/m2 OVC
07:40 60.3 °F /  15.7 °C 60.3 °F /  15.7 °C 29.93 in /  1013.4 hPa Calm     100 % 0.02 in /  0.51 mm 37.0 W/m2 OVC
07:45 60.4 °F /  15.8 °C 60.4 °F /  15.8 °C 29.93 in /  1013.4 hPa Calm     100 % 0.02 in /  0.51 mm 33.0 W/m2 RA
07:50 60.6 °F /  15.9 °C 60.6 °F /  15.9 °C 29.93 in /  1013.4 hPa Calm     100 % 0.01 in /  0.25 mm 125.0 W/m2 RA
07:55 60.8 °F /  16 °C 60.8 °F /  16 °C 29.94 in /  1013.8 hPa Calm     100 % 0.01 in /  0.25 mm 151.0 W/m2 OVC
08:00 60.8 °F /  16 °C 60.8 °F /  16 °C 29.94 in /  1013.8 hPa Calm     100 % 0.01 in /  0.25 mm 123.0 W/m2 OVC
08:05 60.8 °F /  16 °C 60.8 °F /  16 °C 29.94 in /  1013.8 hPa Calm     100 % 0.01 in /  0.25 mm 109.0 W/m2 OVC
08:10 60.8 °F /  16 °C 60.8 °F /  16 °C 29.94 in /  1013.8 hPa SE 1.1 mph /  1.8 km/h 1.1 mph /  1.8 km/h 100 % 0.01 in /  0.25 mm 57.0 W/m2 OVC
08:15 60.6 °F /  15.9 °C 60.6 °F /  15.9 °C 29.95 in /  1014.1 hPa ENE 1.2 mph /  1.9 km/h   100 % 0.01 in /  0.25 mm 74.0 W/m2 OVC
08:20 60.6 °F /  15.9 °C 60.6 °F /  15.9 °C 29.95 in /  1014.1 hPa Calm     100 % 0.01 in /  0.25 mm 119.0 W/m2 OVC
08:25 60.4 °F /  15.8 °C 60.4 °F /  15.8 °C 29.95 in /  1014.1 hPa Calm     100 % 0.01 in /  0.25 mm 57.0 W/m2 OVC
08:30 60.4 °F /  15.8 °C 60.4 °F /  15.8 °C 29.95 in /  1014.1 hPa Calm     100 % 0.01 in /  0.25 mm 163.0 W/m2 OVC
08:35 60.8 °F /  16 °C 60.8 °F /  16 °C 29.95 in /  1014.1 hPa Calm     100 % 0.01 in /  0.25 mm 85.0 W/m2 OVC
08:40 60.8 °F /  16 °C 60.8 °F /  16 °C 29.95 in /  1014.1 hPa Calm     100 % 0.01 in /  0.25 mm 69.0 W/m2 OVC
08:45 61.0 °F /  16.1 °C 61.0 °F /  16.1 °C 29.95 in /  1014.1 hPa SE 0.3 mph /  0.5 km/h   100 % 0.00 in /  0 mm 100.0 W/m2 OVC
08:50 61.0 °F /  16.1 °C 61.0 °F /  16.1 °C 29.95 in /  1014.1 hPa Calm     100 % 0.00 in /  0 mm 157.0 W/m2 OVC
08:55 61.7 °F /  16.5 °C 61.7 °F /  16.5 °C 29.95 in /  1014.1 hPa East 2.3 mph /  3.7 km/h 2.3 mph /  3.7 km/h 100 % 0.00 in /  0 mm 254.0 W/m2 OVC
09:00 61.7 °F /  16.5 °C 61.7 °F /  16.5 °C 29.95 in /  1014.1 hPa Calm     100 % 0.00 in /  0 mm 177.0 W/m2 BKN
09:05 61.7 °F /  16.5 °C 61.7 °F /  16.5 °C 29.95 in /  1014.1 hPa Calm     100 % 0.00 in /  0 mm 73.0 W/m2 OVC
09:10 61.2 °F /  16.2 °C 61.2 °F /  16.2 °C 29.95 in /  1014.1 hPa Calm     100 % 0.00 in /  0 mm 62.0 W/m2 OVC
09:15 61.2 °F /  16.2 °C 61.2 °F /  16.2 °C 29.95 in /  1014.1 hPa Calm     100 % 0.00 in /  0 mm 80.0 W/m2 OVC
09:20 61.3 °F /  16.3 °C 61.3 °F /  16.3 °C 29.95 in /  1014.1 hPa Calm     100 % 0.00 in /  0 mm 104.0 W/m2 OVC
09:25 61.2 °F /  16.2 °C 61.2 °F /  16.2 °C 29.95 in /  1014.1 hPa Calm     100 % 0.00 in /  0 mm 108.0 W/m2 OVC
09:30 61.7 °F /  16.5 °C 61.7 °F /  16.5 °C 29.95 in /  1014.1 hPa Calm     100 % 0.00 in /  0 mm 164.0 W/m2 OVC
09:35 62.1 °F /  16.7 °C 62.1 °F /  16.7 °C 29.95 in /  1014.1 hPa Calm     100 % 0.00 in /  0 mm 151.0 W/m2 OVC
09:40 61.7 °F /  16.5 °C 61.7 °F /  16.5 °C 29.95 in /  1014.1 hPa Calm     100 % 0.00 in /  0 mm 73.0 W/m2 OVC
09:45 61.5 °F /  16.4 °C 61.5 °F /  16.4 °C 29.96 in /  1014.4 hPa Calm     100 % 0.00 in /  0 mm 45.0 W/m2 OVC
09:50 61.5 °F /  16.4 °C 61.5 °F /  16.4 °C 29.96 in /  1014.4 hPa Calm     100 % 0.00 in /  0 mm 109.0 W/m2 OVC
09:55 61.7 °F /  16.5 °C 61.7 °F /  16.5 °C 29.97 in /  1014.8 hPa Calm     100 % 0.00 in /  0 mm 118.0 W/m2 OVC
10:00 62.1 °F /  16.7 °C 62.1 °F /  16.7 °C 29.97 in /  1014.8 hPa WNW 1.1 mph /  1.8 km/h 1.1 mph /  1.8 km/h 100 % 0.00 in /  0 mm 141.0 W/m2 OVC
10:05 63.0 °F /  17.2 °C 63.0 °F /  17.2 °C 29.96 in /  1014.4 hPa West 4.6 mph /  7.4 km/h 4.6 mph /  7.4 km/h 100 % 0.00 in /  0 mm 243.0 W/m2 BKN
10:10 63.1 °F /  17.3 °C 63.1 °F /  17.3 °C 29.97 in /  1014.8 hPa Calm     100 % 0.00 in /  0 mm 149.0 W/m2 OVC
10:11 63.1 °F /  17.3 °C 63.1 °F /  17.3 °C 29.97 in /  1014.8 hPa Calm     100 % 0.00 in /  0 mm 146.0 W/m2 OVC
10:17 63.0 °F /  17.2 °C 63.0 °F /  17.2 °C 29.97 in /  1014.8 hPa SSE 4.0 mph /  6.4 km/h 4.0 mph /  6.4 km/h 100 % 0.00 in /  0 mm 125.0 W/m2 OVC
10:22 62.4 °F /  16.9 °C 62.4 °F /  16.9 °C 29.97 in /  1014.8 hPa Calm     100 % 0.00 in /  0 mm 138.0 W/m2 OVC
10:23 62.4 °F /  16.9 °C 62.4 °F /  16.9 °C 29.97 in /  1014.8 hPa Calm     100 % 0.00 in /  0 mm 142.0 W/m2 OVC
10:28 62.6 °F /  17 °C 62.6 °F /  17 °C 29.97 in /  1014.8 hPa Calm     100 % 0.00 in /  0 mm 149.0 W/m2 OVC
10:33 62.6 °F /  17 °C 62.6 °F /  17 °C 29.97 in /  1014.8 hPa Calm     100 % 0.00 in /  0 mm 176.0 W/m2 OVC
10:38 63.5 °F /  17.5 °C 63.5 °F /  17.5 °C 29.97 in /  1014.8 hPa Calm     100 % 0.00 in /  0 mm 230.0 W/m2 OVC
10:43 63.5 °F /  17.5 °C 63.5 °F /  17.5 °C 29.97 in /  1014.8 hPa Calm     100 % 0.00 in /  0 mm 167.0 W/m2 OVC
10:48 63.0 °F /  17.2 °C 63.0 °F /  17.2 °C 29.97 in /  1014.8 hPa Calm     100 % 0.00 in /  0 mm 148.0 W/m2 OVC
10:53 63.0 °F /  17.2 °C 63.0 °F /  17.2 °C 29.98 in /  1015.1 hPa West 2.3 mph /  3.7 km/h 2.3 mph /  3.7 km/h 100 % 0.00 in /  0 mm 146.0 W/m2 OVC
10:58 63.0 °F /  17.2 °C 63.0 °F /  17.2 °C 29.98 in /  1015.1 hPa Calm     100 % 0.00 in /  0 mm 144.0 W/m2 OVC
11:03 62.4 °F /  16.9 °C 62.4 °F /  16.9 °C 29.98 in /  1015.1 hPa ESE 2.3 mph /  3.7 km/h 2.3 mph /  3.7 km/h 100 % 0.00 in /  0 mm 65.0 W/m2 OVC
11:08 62.1 °F /  16.7 °C 62.1 °F /  16.7 °C 29.98 in /  1015.1 hPa NW 3.5 mph /  5.6 km/h   100 % 0.00 in /  0 mm 72.0 W/m2 OVC
11:14 62.1 °F /  16.7 °C 62.1 °F /  16.7 °C 29.98 in /  1015.1 hPa Calm     100 % 0.00 in /  0 mm 192.0 W/m2 OVC
11:19 63.0 °F /  17.2 °C 63.0 °F /  17.2 °C 29.98 in /  1015.1 hPa ESE 1.2 mph /  1.9 km/h   100 % 0.00 in /  0 mm 239.0 W/m2 OVC
11:24 63.3 °F /  17.4 °C 63.3 °F /  17.4 °C 29.98 in /  1015.1 hPa ESE 2.3 mph /  3.7 km/h   100 % 0.00 in /  0 mm 212.0 W/m2 OVC
11:29 63.5 °F /  17.5 °C 63.5 °F /  17.5 °C 29.98 in /  1015.1 hPa Calm     100 % 0.00 in /  0 mm 212.0 W/m2 OVC
11:34 63.5 °F /  17.5 °C 63.5 °F /  17.5 °C 29.98 in /  1015.1 hPa WNW 3.5 mph /  5.6 km/h 3.5 mph /  5.6 km/h 100 % 0.00 in /  0 mm 200.0 W/m2 OVC
11:44 64.8 °F /  18.2 °C 64.8 °F /  18.2 °C 29.98 in /  1015.1 hPa Calm     100 % 0.00 in /  0 mm 321.0 W/m2 BKN
11:49 65.1 °F /  18.4 °C 65.1 °F /  18.4 °C 29.98 in /  1015.1 hPa WSW 2.8 mph /  4.5 km/h 2.8 mph /  4.5 km/h 100 % 0.00 in /  0 mm 274.0 W/m2 OVC
11:54 64.8 °F /  18.2 °C 64.8 °F /  18.2 °C 29.98 in /  1015.1 hPa Calm     100 % 0.00 in /  0 mm 185.0 W/m2 OVC
11:59 64.4 °F /  18 °C 64.4 °F /  18 °C 29.98 in /  1015.1 hPa WNW 1.4 mph /  2.3 km/h 1.4 mph /  2.3 km/h 100 % 0.00 in /  0 mm 217.0 W/m2 OVC
12:04 64.2 °F /  17.9 °C 64.2 °F /  17.9 °C 29.98 in /  1015.1 hPa SW 10.5 mph /  16.9 km/h 10.5 mph /  16.9 km/h 100 % 0.00 in /  0 mm 213.0 W/m2 OVC
12:09 65.3 °F /  18.5 °C 65.3 °F /  18.5 °C 29.99 in /  1015.5 hPa WNW 0.6 mph /  1 km/h   100 % 0.00 in /  0 mm 616.0 W/m2 BKN
12:14 65.8 °F /  18.8 °C 65.8 °F /  18.8 °C 29.98 in /  1015.1 hPa SSW 3.0 mph /  4.8 km/h 3.0 mph /  4.8 km/h 100 % 0.00 in /  0 mm 171.0 W/m2 OVC
12:19 64.4 °F /  18 °C 64.4 °F /  18 °C 29.99 in /  1015.5 hPa SE 3.5 mph /  5.6 km/h 3.5 mph /  5.6 km/h 100 % 0.00 in /  0 mm 165.0 W/m2 OVC
12:24 64.8 °F /  18.2 °C 64.8 °F /  18.2 °C 29.99 in /  1015.5 hPa East 4.6 mph /  7.4 km/h 4.6 mph /  7.4 km/h 100 % 0.00 in /  0 mm 245.0 W/m2 OVC
12:29 64.4 °F /  18 °C 64.4 °F /  18 °C 29.99 in /  1015.5 hPa East 4.8 mph /  7.7 km/h 4.8 mph /  7.7 km/h 100 % 0.00 in /  0 mm 268.0 W/m2 BKN
12:34 64.8 °F /  18.2 °C 64.8 °F /  18.2 °C 29.99 in /  1015.5 hPa SSE 5.8 mph /  9.3 km/h 5.8 mph /  9.3 km/h 100 % 0.00 in /  0 mm 276.0 W/m2 OVC
12:39 65.3 °F /  18.5 °C 65.3 °F /  18.5 °C 29.99 in /  1015.5 hPa SSE 3.5 mph /  5.6 km/h 3.5 mph /  5.6 km/h 100 % 0.00 in /  0 mm 240.0 W/m2 OVC
12:44 65.5 °F /  18.6 °C 65.5 °F /  18.6 °C 29.99 in /  1015.5 hPa Calm     100 % 0.00 in /  0 mm 268.0 W/m2 OVC
12:49 65.3 °F /  18.5 °C 65.3 °F /  18.5 °C 29.99 in /  1015.5 hPa West 5.8 mph /  9.3 km/h 5.8 mph /  9.3 km/h 100 % 0.00 in /  0 mm 225.0 W/m2 OVC
12:54 65.1 °F /  18.4 °C 65.1 °F /  18.4 °C 29.99 in /  1015.5 hPa SE 0.6 mph /  1 km/h 0.6 mph /  1 km/h 100 % 0.00 in /  0 mm 249.0 W/m2 OVC
12:59 65.5 °F /  18.6 °C 65.5 °F /  18.6 °C 29.99 in /  1015.5 hPa West 8.4 mph /  13.5 km/h 8.4 mph /  13.5 km/h 100 % 0.00 in /  0 mm 207.0 W/m2 OVC
13:04 66.0 °F /  18.9 °C 66.0 °F /  18.9 °C 29.99 in /  1015.5 hPa SE 0.6 mph /  1 km/h   100 % 0.00 in /  0 mm 201.0 W/m2 OVC
13:09 65.8 °F /  18.8 °C 65.8 °F /  18.8 °C 29.99 in /  1015.5 hPa Calm     100 % 0.00 in /  0 mm 198.0 W/m2 OVC
13:14 65.7 °F /  18.7 °C 65.7 °F /  18.7 °C 29.99 in /  1015.5 hPa WSW 3.5 mph /  5.6 km/h 3.5 mph /  5.6 km/h 100 % 0.00 in /  0 mm 205.0 W/m2 OVC
13:19 65.1 °F /  18.4 °C 65.1 °F /  18.4 °C 29.99 in /  1015.5 hPa West 0.3 mph /  0.5 km/h   100 % 0.00 in /  0 mm 176.0 W/m2 OVC
13:24 65.3 °F /  18.5 °C 65.3 °F /  18.5 °C 29.99 in /  1015.5 hPa West 1.5 mph /  2.4 km/h 1.5 mph /  2.4 km/h 100 % 0.00 in /  0 mm 226.0 W/m2 OVC
13:29 65.3 °F /  18.5 °C 65.3 °F /  18.5 °C 30.00 in /  1015.8 hPa ESE 0.3 mph /  0.5 km/h   100 % 0.00 in /  0 mm 188.0 W/m2 OVC
13:34 64.9 °F /  18.3 °C 64.9 °F /  18.3 °C 30.00 in /  1015.8 hPa Calm     100 % 0.00 in /  0 mm 150.0 W/m2 OVC
13:39 64.4 °F /  18 °C 64.4 °F /  18 °C 30.00 in /  1015.8 hPa Calm     100 % 0.00 in /  0 mm 184.0 W/m2 OVC
13:44 64.9 °F /  18.3 °C 64.9 °F /  18.3 °C 30.00 in /  1015.8 hPa Calm     100 % 0.00 in /  0 mm 250.0 W/m2 OVC
13:49 64.9 °F /  18.3 °C 64.9 °F /  18.3 °C 30.00 in /  1015.8 hPa West 1.2 mph /  1.9 km/h   100 % 0.00 in /  0 mm 163.0 W/m2 OVC
13:54 64.4 °F /  18 °C 64.4 °F /  18 °C 30.00 in /  1015.8 hPa Calm     100 % 0.00 in /  0 mm 114.0 W/m2 OVC
13:59 63.7 °F /  17.6 °C 63.7 °F /  17.6 °C 30.00 in /  1015.8 hPa WSW 5.8 mph /  9.3 km/h 5.8 mph /  9.3 km/h 100 % 0.00 in /  0 mm 90.0 W/m2 OVC
14:04 63.3 °F /  17.4 °C 63.3 °F /  17.4 °C 30.00 in /  1015.8 hPa SE 3.0 mph /  4.8 km/h 3.0 mph /  4.8 km/h 100 % 0.00 in /  0 mm 117.0 W/m2 OVC
14:09 63.5 °F /  17.5 °C 63.5 °F /  17.5 °C 30.00 in /  1015.8 hPa West 0.3 mph /  0.5 km/h   100 % 0.00 in /  0 mm 179.0 W/m2 OVC
14:14 64.0 °F /  17.8 °C 64.0 °F /  17.8 °C 30.00 in /  1015.8 hPa ESE 1.2 mph /  1.9 km/h   100 % 0.00 in /  0 mm 140.0 W/m2 OVC
14:19 63.9 °F /  17.7 °C 63.9 °F /  17.7 °C 30.00 in /  1015.8 hPa Calm     100 % 0.00 in /  0 mm 171.0 W/m2 OVC
14:25 64.2 °F /  17.9 °C 64.2 °F /  17.9 °C 30.00 in /  1015.8 hPa NW 2.3 mph /  3.7 km/h 2.3 mph /  3.7 km/h 100 % 0.00 in /  0 mm 141.0 W/m2 OVC
Wether-Above
Compliments of Weather Underground - 1.75 mb
Welcome to Weather-Above
Cheddleton weather station supplies various organisations with data from our weather station one of them is the weather Underground this information displayed here is coming from the weather Underground server 

If any information is used please acknowledge the source to www weather-above.com or weather Underground